Airfield :
LOGIN :

Register | Disclaimer

   EN    FR    IT 

 










Legend :    VFR   Marginal VFR   IFR   Intensive IFR   Very Intensive IFR
Visi :
Ceiling :
>= 8 km
>= 3000ft
5 to 8 km
1000 to 3000 ft
1500m to 5 km
500 to 1000 ft
800 to 1500m
200 to 500 ft
< 800m
< 200 ft
Symbols :   Thunderstorms  Fog  Heavy snow  Heavy precipitations  Wind > 20 kt
SIGMETs :     Misc.  Thunderstorms  Icing  Turbulence  Mountain Waves  Volcanic Ashes







- Airport Elevation : 1247 ft
- IATA code : PRG


LKPR - Praha Ruzyne

CURRENT METAR :
  • 211600Z 31008KT 9999 FEW018 M00/M02 Q1015 R24/29//95 R30/29//95 NOSIG

EXPIRED METARs :
  • 211530Z 33006KT 280V010 9999 SCT020 00/M02 Q1015 R24/29//95 R30/29//95 NOSIG
  • 211500Z 30010KT 7000 -SHSN SCT028 01/M02 Q1014 R24/29//95 R30/29//95 NOSIG
  • 211452Z 30009KT 9999 -SHSN SCT030 01/M03 Q1014 R24/29//95 R30/29//95 RMK REG QNH 1005
  • 211430Z 30008KT 9999 FEW025 M00/M03 Q1013 R24/29//95 R30/29//95 NOSIG
  • 211400Z 31008KT 9999 FEW025 00/M02 Q1013 R24/29//95 R30/29//95 NOSIG
  • 211330Z 31008KT 9999 FEW020 01/M02 Q1012 R24/29//95 R30/29//95 NOSIG

TAF TAF LKPR
Valid from the 21 at 12:00 until the 22 at 18:00 UTC


211100Z 2112/2218 33008KT 5000 BR BKN005
BECMG 2112/2115 7000 BKN015
BECMG 2115/2118 9999 SCT030
BECMG 2119/2122 VRB02KT
TEMPO 2122/2206 3000 BR SCT006
BECMG 2204/2207 17008KT
BECMG 2210/2213 BKN015
TEMPO 2213/2218 5000 -RA BKN010
No reported NOTAMs for that airfield.



MET'MAP, your aeronautical weather chart ! - Copyright ORBIFLY December 2007 - Disclaimer

ORBIFLY MET'MAP TEAM :

Programming & Development : Alexandra Zaïnal
Concept & Development : Baudouin d'Aumeries
Co-Development & Prog : Marc-Olivier Méhu
Technical & hardware support : Manuel Goepfert

Contact : metmap@orbifly.com




SOURCES & CREDITS :

   NOAA